createdAt,value
2022-08-09T00:01:05.200Z,4.95
2022-08-09T00:04:03.730Z,4.53
2022-08-09T00:06:24.437Z,4.30
2022-08-09T00:08:51.937Z,4.70
2022-08-09T00:11:24.273Z,4.88
2022-08-09T00:13:51.729Z,4.93
2022-08-09T00:16:26.150Z,4.55
2022-08-09T00:19:03.725Z,4.90
2022-08-09T00:21:37.645Z,5.03
2022-08-09T00:24:09.449Z,5.00
2022-08-09T00:26:36.765Z,5.07
2022-08-09T00:29:03.868Z,5.15
2022-08-09T00:31:58.617Z,4.93
2022-08-09T00:34:25.324Z,4.82
2022-08-09T00:36:52.657Z,4.68
2022-08-09T00:40:13.928Z,4.70
2022-08-09T00:44:19.389Z,5.13
2022-08-09T00:44:52.013Z,5.40
2022-08-09T00:47:20.301Z,5.25
2022-08-09T00:49:52.534Z,5.20
2022-08-09T00:52:22.421Z,5.45
2022-08-09T00:54:54.664Z,5.07
2022-08-09T00:57:33.990Z,5.28
2022-08-09T01:00:22.049Z,4.93
2022-08-09T01:02:53.553Z,5.60
2022-08-09T01:05:51.834Z,5.10
2022-08-09T01:08:27.072Z,5.25
2022-08-09T01:11:16.321Z,5.20
2022-08-09T01:13:58.735Z,5.10
2022-08-09T01:16:30.484Z,5.55
2022-08-09T01:19:02.606Z,5.30
2022-08-09T01:21:50.909Z,5.88
2022-08-09T01:24:17.945Z,6.22
2022-08-09T01:26:55.901Z,4.63
2022-08-09T01:29:41.128Z,5.55
2022-08-09T01:32:31.031Z,5.20
2022-08-09T01:35:07.037Z,4.82
2022-08-09T01:38:10.122Z,4.78
2022-08-09T01:40:33.829Z,4.40
2022-08-09T01:43:04.448Z,4.22
2022-08-09T01:45:34.388Z,4.40
2022-08-09T01:50:48.322Z,5.00
2022-08-09T01:53:19.819Z,5.10
2022-08-09T01:55:47.851Z,4.90
2022-08-09T01:58:15.673Z,5.10
2022-08-09T02:00:46.219Z,5.00
2022-08-09T02:03:19.324Z,4.95
2022-08-09T02:06:04.021Z,5.20
2022-08-09T02:08:57.940Z,5.43
2022-08-09T02:11:23.681Z,4.47
2022-08-09T02:14:02.180Z,5.25
2022-08-09T02:16:59.133Z,4.72
2022-08-09T02:19:24.099Z,4.80
2022-08-09T02:22:08.459Z,4.43
2022-08-09T02:24:37.919Z,3.88
2022-08-09T02:27:08.286Z,4.05
2022-08-09T02:29:44.964Z,4.72
2022-08-09T02:32:18.208Z,4.00
2022-08-09T02:34:55.536Z,4.43
2022-08-09T02:37:31.720Z,4.10
2022-08-09T02:40:04.765Z,4.10
2022-08-09T02:42:42.880Z,3.85
2022-08-09T02:45:15.944Z,4.50
2022-08-09T02:47:57.584Z,4.00
2022-08-09T02:50:30.928Z,4.97
2022-08-09T02:53:02.491Z,4.63
2022-08-09T02:55:46.306Z,4.43
2022-08-09T02:58:32.313Z,4.82
2022-08-09T03:01:04.474Z,4.70
2022-08-09T03:03:37.289Z,5.07
2022-08-09T03:06:23.487Z,4.53
2022-08-09T03:08:52.915Z,4.05
2022-08-09T03:12:06.362Z,4.63
2022-08-09T03:14:08.369Z,3.92
2022-08-09T03:16:41.704Z,4.25
2022-08-09T03:19:14.422Z,4.47
2022-08-09T03:21:59.813Z,4.13
2022-08-09T03:24:42.685Z,4.55
2022-08-09T03:27:17.144Z,4.93
2022-08-09T03:29:57.571Z,3.55
2022-08-09T03:32:30.242Z,3.95
2022-08-09T03:34:58.206Z,4.30
2022-08-09T03:37:55.774Z,4.07
2022-08-09T03:40:13.312Z,4.10
2022-08-09T03:42:43.171Z,4.80
2022-08-09T03:45:10.913Z,4.22
2022-08-09T03:47:41.800Z,4.75
2022-08-09T03:50:12.065Z,4.30
2022-08-09T03:52:40.542Z,4.90
2022-08-09T03:55:10.478Z,4.93
2022-08-09T03:57:44.695Z,4.53
2022-08-09T04:00:24.394Z,4.72
2022-08-09T04:02:53.910Z,4.90
2022-08-09T04:05:27.369Z,4.85
2022-08-09T04:07:57.167Z,4.60
2022-08-09T04:10:29.239Z,5.00
2022-08-09T04:13:01.084Z,5.90
2022-08-09T04:15:42.807Z,5.68
2022-08-09T04:18:16.577Z,5.93
2022-08-09T04:20:46.087Z,5.82
2022-08-09T04:23:17.217Z,5.90
2022-08-09T04:25:52.253Z,4.50
2022-08-09T04:28:33.647Z,4.72
2022-08-09T04:31:08.290Z,4.38
2022-08-09T04:33:52.057Z,4.38
2022-08-09T04:36:25.157Z,5.68
2022-08-09T04:38:53.470Z,6.47
2022-08-09T04:41:23.655Z,5.10
2022-08-09T04:44:05.829Z,4.13
2022-08-09T04:46:37.572Z,3.88
2022-08-09T04:49:40.726Z,4.00
2022-08-09T04:52:09.676Z,4.20
2022-08-09T04:54:36.418Z,5.10
2022-08-09T04:57:03.843Z,4.03
2022-08-09T04:59:30.626Z,4.40
2022-08-09T05:01:57.042Z,4.10
2022-08-09T05:04:23.471Z,4.97
2022-08-09T05:06:57.910Z,4.70
2022-08-09T05:09:24.700Z,5.13
2022-08-09T05:11:51.553Z,5.32
2022-08-09T05:14:18.551Z,5.50
2022-08-09T05:16:58.847Z,5.00
2022-08-09T05:19:31.882Z,5.45
2022-08-09T05:22:33.260Z,5.90
2022-08-09T05:24:57.527Z,6.32
2022-08-09T05:27:28.847Z,6.68
2022-08-09T05:29:57.499Z,5.93
2022-08-09T05:32:25.439Z,6.20
2022-08-09T05:34:51.816Z,6.40
2022-08-09T05:37:18.272Z,5.85
2022-08-09T05:39:44.851Z,5.45
2022-08-09T05:42:17.874Z,5.40
2022-08-09T05:45:01.028Z,5.22
2022-08-09T05:47:30.458Z,4.82
2022-08-09T05:50:28.170Z,4.93
2022-08-09T05:52:53.473Z,4.95
2022-08-09T05:55:21.693Z,4.18
2022-08-09T05:57:55.987Z,4.28
2022-08-09T06:00:26.228Z,4.32
2022-08-09T06:02:56.891Z,4.20
2022-08-09T06:05:50.652Z,4.30
2022-08-09T06:08:11.716Z,4.20
2022-08-09T06:10:38.834Z,4.00
2022-08-09T06:13:18.584Z,4.32
2022-08-09T06:15:47.549Z,4.30
2022-08-09T06:18:17.607Z,4.15
2022-08-09T06:20:54.128Z,4.07
2022-08-09T06:23:21.013Z,4.43
2022-08-09T06:25:49.183Z,4.30
2022-08-09T06:28:16.046Z,4.13
2022-08-09T06:30:43.456Z,3.83
2022-08-09T06:33:40.523Z,3.75
2022-08-09T06:35:58.439Z,3.78
2022-08-09T06:38:36.332Z,3.67
2022-08-09T06:41:04.449Z,3.88
2022-08-09T06:43:34.385Z,4.10
2022-08-09T06:46:06.398Z,3.97
2022-08-09T06:48:37.012Z,3.75
2022-08-09T06:51:10.840Z,3.60
2022-08-09T06:53:39.068Z,3.50
2022-08-09T06:56:07.677Z,3.50
2022-08-09T07:00:47.764Z,3.53
2022-08-09T07:01:24.246Z,3.45
2022-08-09T07:04:03.727Z,3.50
2022-08-09T07:06:30.713Z,3.17
2022-08-09T07:08:57.844Z,3.00
2022-08-09T07:11:25.574Z,3.00
2022-08-09T07:14:05.419Z,2.80
2022-08-09T07:16:39.325Z,2.90
2022-08-09T07:19:09.551Z,2.60
2022-08-09T07:21:41.664Z,2.53
2022-08-09T07:24:22.449Z,2.58
2022-08-09T07:27:00.649Z,2.40
2022-08-09T07:29:30.758Z,2.30
2022-08-09T07:32:04.945Z,2.50
2022-08-09T07:34:32.204Z,2.25
2022-08-09T07:37:02.700Z,2.20
2022-08-09T07:39:40.864Z,2.20
2022-08-09T07:42:09.377Z,1.95
2022-08-09T07:44:53.197Z,1.92
2022-08-09T07:47:20.994Z,2.00
2022-08-09T07:50:08.550Z,1.88
2022-08-09T07:52:36.134Z,1.90
2022-08-09T07:55:08.626Z,1.80
2022-08-09T07:57:36.048Z,2.10
2022-08-09T08:00:05.171Z,1.90
2022-08-09T08:02:36.006Z,1.90
2022-08-09T08:05:17.511Z,2.10
2022-08-09T08:08:42.582Z,1.58
2022-08-09T08:10:31.579Z,1.55
2022-08-09T08:13:01.619Z,1.70
2022-08-09T08:15:35.277Z,1.33
2022-08-09T08:18:02.018Z,1.15
2022-08-09T08:20:33.040Z,1.50
2022-08-09T08:23:16.248Z,1.30
2022-08-09T08:25:50.407Z,1.25
2022-08-09T08:28:31.803Z,1.55
2022-08-09T08:30:59.204Z,1.33
2022-08-09T08:33:25.600Z,1.42
2022-08-09T08:36:07.615Z,1.50
2022-08-09T08:38:34.879Z,1.50
2022-08-09T08:41:05.764Z,1.33
2022-08-09T08:43:33.579Z,1.35
2022-08-09T08:46:31.689Z,1.25
2022-08-09T08:48:53.532Z,1.30
2022-08-09T08:51:22.381Z,1.30
2022-08-09T08:54:03.685Z,1.20
2022-08-09T08:56:35.936Z,1.10
2022-08-09T08:59:19.850Z,1.10
2022-08-09T09:01:56.679Z,1.10
2022-08-09T09:04:31.074Z,0.90
2022-08-09T09:07:08.155Z,1.08
2022-08-09T09:09:57.951Z,1.10
2022-08-09T09:12:29.397Z,1.05
2022-08-09T09:14:58.625Z,1.15
2022-08-09T09:17:25.086Z,1.20
2022-08-09T09:20:15.493Z,1.00
2022-08-09T09:22:51.929Z,1.15
2022-08-09T09:26:04.509Z,0.90
2022-08-09T09:29:01.959Z,1.00
2022-08-09T09:32:04.140Z,1.00
2022-08-09T09:34:15.165Z,1.00
2022-08-09T09:36:53.092Z,1.00
2022-08-09T09:39:42.767Z,1.08
2022-08-09T09:42:22.437Z,0.90
2022-08-09T09:45:03.179Z,1.00
2022-08-09T09:47:30.190Z,0.80
2022-08-09T09:50:15.258Z,0.80
2022-08-09T09:52:54.511Z,0.85
2022-08-09T09:55:28.227Z,0.90
2022-08-09T09:58:16.571Z,0.80
2022-08-09T10:00:58.867Z,0.77
2022-08-09T10:03:44.662Z,0.80
2022-08-09T10:06:23.170Z,1.00
2022-08-09T10:08:54.891Z,0.65
2022-08-09T10:12:00.091Z,0.90
2022-08-09T10:14:33.847Z,0.90
2022-08-09T10:17:40.559Z,1.02
2022-08-09T10:19:57.148Z,1.10
2022-08-09T10:22:36.840Z,1.00
2022-08-09T10:25:11.658Z,0.73
2022-08-09T10:27:45.155Z,0.90
2022-08-09T10:32:21.049Z,0.93
2022-08-09T10:34:08.941Z,0.80
2022-08-09T10:36:03.305Z,0.95
2022-08-09T10:38:54.946Z,0.80
2022-08-09T10:41:18.735Z,0.75
2022-08-09T10:43:59.331Z,0.80
2022-08-09T10:47:00.573Z,0.80
2022-08-09T10:50:03.120Z,1.08
2022-08-09T10:52:54.080Z,0.90
2022-08-09T10:55:25.955Z,0.80
2022-08-09T10:57:55.705Z,0.90
2022-08-09T11:00:41.826Z,1.00
2022-08-09T11:03:47.070Z,0.90
2022-08-09T11:06:15.922Z,0.93
2022-08-09T11:08:47.575Z,0.80
2022-08-09T11:13:50.445Z,0.98
2022-08-09T11:16:38.689Z,0.90
2022-08-09T11:19:09.852Z,0.82
2022-08-09T11:22:04.869Z,0.90
2022-08-09T11:25:16.130Z,0.82
2022-08-09T11:28:05.538Z,1.00
2022-08-09T11:30:36.740Z,0.90
2022-08-09T11:33:16.643Z,0.90
2022-08-09T11:35:57.265Z,1.00
2022-08-09T11:38:33.278Z,0.80
2022-08-09T11:41:24.385Z,0.90
2022-08-09T11:44:04.302Z,0.95
2022-08-09T11:46:51.643Z,0.95
2022-08-09T11:49:28.181Z,1.05
2022-08-09T11:53:03.701Z,1.00
2022-08-09T11:55:51.469Z,0.90
2022-08-09T11:58:15.368Z,0.93
2022-08-09T12:00:52.904Z,0.98
2022-08-09T12:03:54.824Z,0.90
2022-08-09T12:06:18.395Z,0.80
2022-08-09T12:08:56.007Z,0.88
2022-08-09T12:11:26.984Z,0.80
2022-08-09T12:14:09.977Z,0.88
2022-08-09T12:16:43.573Z,0.90
2022-08-09T12:19:12.035Z,0.93
2022-08-09T12:21:48.400Z,0.88
2022-08-09T12:24:24.570Z,0.85
2022-08-09T12:28:58.891Z,0.73
2022-08-09T12:29:52.281Z,0.80
2022-08-09T12:32:26.847Z,1.33
2022-08-09T12:34:59.109Z,0.80
2022-08-09T12:37:33.819Z,0.80
2022-08-09T12:40:16.326Z,0.80
2022-08-09T12:42:44.252Z,0.82
2022-08-09T12:45:33.951Z,0.65
2022-08-09T12:47:57.987Z,1.00
2022-08-09T12:50:25.151Z,0.77
2022-08-09T12:53:17.363Z,0.95
2022-08-09T12:56:16.042Z,0.75
2022-08-09T12:58:28.260Z,0.73
2022-08-09T13:00:56.459Z,0.80
2022-08-09T13:03:57.108Z,0.82
2022-08-09T13:06:42.034Z,0.90
2022-08-09T13:09:23.360Z,1.10
2022-08-09T13:12:01.954Z,0.93
2022-08-09T13:14:41.697Z,0.90
2022-08-09T13:17:44.259Z,0.88
2022-08-09T13:20:09.981Z,0.85
2022-08-09T13:23:00.993Z,0.90
2022-08-09T13:25:53.349Z,0.80
2022-08-09T13:28:34.198Z,1.00
2022-08-09T13:32:17.841Z,1.00
2022-08-09T13:33:54.151Z,1.00
2022-08-09T13:36:24.422Z,0.90
2022-08-09T13:41:17.395Z,1.10
2022-08-09T13:42:12.251Z,1.00
2022-08-09T13:44:42.594Z,0.93
2022-08-09T13:47:26.887Z,0.85
2022-08-09T13:49:57.782Z,0.90
2022-08-09T13:52:29.264Z,0.80
2022-08-09T13:55:00.224Z,0.80
2022-08-09T13:57:35.610Z,0.80
2022-08-09T14:00:07.474Z,0.80
2022-08-09T14:02:36.235Z,0.85
2022-08-09T14:05:09.762Z,1.00
2022-08-09T14:07:41.064Z,0.95
2022-08-09T14:10:17.017Z,0.80
2022-08-09T14:12:44.236Z,1.00
2022-08-09T14:16:07.210Z,1.00
2022-08-09T14:18:18.877Z,0.80
2022-08-09T14:20:43.977Z,0.80
2022-08-09T14:23:20.438Z,0.80
2022-08-09T14:26:01.443Z,0.90
2022-08-09T14:28:28.044Z,0.80
2022-08-09T14:30:54.423Z,0.90
2022-08-09T14:33:21.517Z,0.90
2022-08-09T14:35:52.352Z,0.80
2022-08-09T14:38:19.806Z,1.13
2022-08-09T14:41:02.315Z,0.82
2022-08-09T14:43:46.909Z,0.93
2022-08-09T14:46:46.311Z,0.80
2022-08-09T14:49:02.743Z,0.90
2022-08-09T14:51:30.129Z,1.35
2022-08-09T14:53:56.648Z,1.00
2022-08-09T14:56:26.949Z,0.93
2022-08-09T14:58:56.163Z,0.88
2022-08-09T15:01:24.277Z,0.90
2022-08-09T15:03:50.780Z,0.90
2022-08-09T15:06:17.244Z,0.90
2022-08-09T15:08:46.338Z,0.90
2022-08-09T15:11:22.904Z,1.00
2022-08-09T15:14:04.101Z,0.98
2022-08-09T15:16:31.399Z,0.90
2022-08-09T15:18:59.802Z,0.90
2022-08-09T15:21:56.202Z,0.90
2022-08-09T15:24:23.324Z,0.90
2022-08-09T15:26:53.871Z,1.00
2022-08-09T15:30:55.354Z,1.00
2022-08-09T15:32:29.192Z,1.00
2022-08-09T15:34:53.865Z,0.93
2022-08-09T15:37:23.496Z,0.93
2022-08-09T15:39:55.075Z,1.00
2022-08-09T15:42:21.947Z,1.02
2022-08-09T15:44:48.978Z,0.90
2022-08-09T15:47:22.703Z,1.02
2022-08-09T15:50:00.618Z,1.20
2022-08-09T15:52:35.606Z,1.10
2022-08-09T15:55:03.990Z,1.10
2022-08-09T15:57:35.029Z,1.10
2022-08-09T16:00:08.326Z,1.00
2022-08-09T16:02:34.733Z,1.08
2022-08-09T16:05:03.931Z,0.90
2022-08-09T16:07:39.075Z,0.90
2022-08-09T16:10:08.040Z,0.90
2022-08-09T16:12:50.565Z,0.90
2022-08-09T16:16:04.629Z,1.00
2022-08-09T16:18:06.536Z,1.00
2022-08-09T16:20:35.634Z,0.88
2022-08-09T16:23:05.653Z,0.90
2022-08-09T16:25:40.242Z,0.80
2022-08-09T16:28:07.374Z,0.90
2022-08-09T16:30:33.876Z,0.93
2022-08-09T16:33:01.482Z,1.05
2022-08-09T16:35:57.110Z,0.98
2022-08-09T16:38:14.477Z,1.08
2022-08-09T16:40:44.556Z,0.90
2022-08-09T16:43:12.220Z,0.90
2022-08-09T16:45:44.338Z,1.00
2022-08-09T16:48:49.523Z,0.90
2022-08-09T16:50:59.648Z,1.00
2022-08-09T16:53:34.712Z,1.10
2022-08-09T16:56:06.279Z,1.10
2022-08-09T16:58:36.864Z,1.13
2022-08-09T17:01:04.579Z,1.05
2022-08-09T17:03:31.713Z,0.90
2022-08-09T17:06:09.408Z,1.08
2022-08-09T17:09:00.034Z,1.17
2022-08-09T17:11:41.074Z,1.00
2022-08-09T17:14:25.730Z,1.00
2022-08-09T17:16:59.446Z,0.95
2022-08-09T17:19:26.945Z,1.10
2022-08-09T17:22:13.758Z,1.00
2022-08-09T17:24:41.381Z,1.05
2022-08-09T17:27:15.365Z,1.10
2022-08-09T17:29:45.509Z,1.10
2022-08-09T17:32:15.783Z,1.30
2022-08-09T17:35:02.009Z,1.10
2022-08-09T17:37:32.947Z,1.00
2022-08-09T17:40:19.384Z,1.15
2022-08-09T17:42:47.142Z,1.10
2022-08-09T17:45:15.856Z,1.10
2022-08-09T17:47:55.102Z,1.20
2022-08-09T17:50:36.204Z,1.05
2022-08-09T17:53:04.738Z,1.20
2022-08-09T17:55:49.131Z,1.00
2022-08-09T17:58:16.102Z,1.08
2022-08-09T18:00:46.429Z,1.00
2022-08-09T18:03:13.427Z,1.00
2022-08-09T18:05:43.543Z,1.00
2022-08-09T18:08:10.959Z,0.98
2022-08-09T18:10:39.884Z,1.10
2022-08-09T18:13:43.432Z,1.00
2022-08-09T18:16:07.436Z,1.00
2022-08-09T18:18:36.015Z,0.95
2022-08-09T18:21:21.450Z,1.00
2022-08-09T18:24:09.675Z,1.10
2022-08-09T18:26:49.494Z,1.00
2022-08-09T18:30:40.183Z,1.05
2022-08-09T18:32:06.293Z,1.00
2022-08-09T18:34:33.637Z,1.10
2022-08-09T18:36:59.963Z,1.10
2022-08-09T18:39:32.754Z,1.15
2022-08-09T18:42:01.286Z,1.00
2022-08-09T18:44:28.779Z,1.17
2022-08-09T18:47:07.580Z,1.20
2022-08-09T18:49:41.612Z,1.08
2022-08-09T18:52:11.665Z,1.17
2022-08-09T18:54:39.190Z,1.10
2022-08-09T18:57:12.281Z,1.00
2022-08-09T18:59:51.396Z,1.17
2022-08-09T19:02:30.699Z,1.30
2022-08-09T19:05:04.085Z,1.20
2022-08-09T19:07:41.699Z,1.27
2022-08-09T19:10:18.110Z,1.30
2022-08-09T19:12:59.531Z,1.23
2022-08-09T19:15:31.324Z,1.33
2022-08-09T19:17:58.586Z,1.40
2022-08-09T19:20:25.909Z,1.30
2022-08-09T19:22:54.510Z,1.48
2022-08-09T19:25:42.741Z,1.40
2022-08-09T19:28:08.976Z,1.30
2022-08-09T19:30:44.471Z,1.33
2022-08-09T19:33:19.574Z,1.40
2022-08-09T19:35:57.272Z,1.40
2022-08-09T19:38:25.707Z,1.30
2022-08-09T19:40:52.606Z,1.50
2022-08-09T19:44:02.272Z,1.45
2022-08-09T19:46:05.654Z,1.40
2022-08-09T19:49:01.938Z,1.30
2022-08-09T19:51:18.359Z,1.42
2022-08-09T19:53:47.751Z,1.20
2022-08-09T19:56:15.513Z,1.42
2022-08-09T19:58:42.242Z,1.20
2022-08-09T20:01:23.884Z,1.30
2022-08-09T20:04:16.943Z,1.30
2022-08-09T20:06:37.549Z,1.27
2022-08-09T20:09:04.493Z,1.20
2022-08-09T20:11:33.916Z,1.30
2022-08-09T20:14:10.341Z,1.23
2022-08-09T20:16:53.177Z,1.50
2022-08-09T20:19:48.869Z,1.30
2022-08-09T20:22:08.989Z,1.60
2022-08-09T20:24:36.633Z,1.58
2022-08-09T20:27:08.357Z,1.52
2022-08-09T20:29:37.414Z,1.63
2022-08-09T20:32:29.978Z,1.38
2022-08-09T20:34:56.168Z,1.60
2022-08-09T20:37:22.918Z,1.50
2022-08-09T20:40:16.347Z,1.40
2022-08-09T20:42:37.794Z,1.40
2022-08-09T20:46:00.947Z,1.30
2022-08-09T20:47:51.377Z,1.48
2022-08-09T20:50:47.133Z,1.30
2022-08-09T20:53:04.311Z,1.42
2022-08-09T20:55:47.508Z,1.20
2022-08-09T20:58:26.885Z,1.50
2022-08-09T21:05:48.749Z,1.38
2022-08-09T21:06:32.681Z,1.60
2022-08-09T21:09:01.670Z,1.50
2022-08-09T21:14:15.441Z,1.50
2022-08-09T21:16:43.728Z,1.83
2022-08-09T21:20:19.479Z,1.70
2022-08-09T21:21:58.432Z,1.50
2022-08-09T21:24:28.480Z,1.70
2022-08-09T21:26:59.258Z,1.52
2022-08-09T21:29:25.612Z,1.60
2022-08-09T21:31:51.968Z,1.60
2022-08-09T21:34:28.868Z,1.77
2022-08-09T21:36:56.411Z,1.60
2022-08-09T21:39:28.206Z,1.60
2022-08-09T21:42:10.400Z,1.58
2022-08-09T21:44:37.938Z,1.70
2022-08-09T21:47:07.680Z,1.67
2022-08-09T21:49:39.655Z,1.73
2022-08-09T21:52:17.747Z,1.48
2022-08-09T21:54:59.342Z,1.90
2022-08-09T21:57:38.788Z,1.60
2022-08-09T22:00:25.441Z,1.70
2022-08-09T22:02:58.753Z,1.90
2022-08-09T22:05:36.013Z,1.80
2022-08-09T22:08:05.677Z,1.83
2022-08-09T22:10:32.291Z,1.60
2022-08-09T22:13:00.853Z,1.70
2022-08-09T22:15:34.990Z,1.60
2022-08-09T22:18:01.660Z,1.70
2022-08-09T22:20:31.463Z,1.73
2022-08-09T22:22:58.305Z,1.60
2022-08-09T22:26:05.907Z,1.60
2022-08-09T22:28:11.560Z,1.70
2022-08-09T22:30:39.050Z,1.50
2022-08-09T22:33:17.181Z,1.55
2022-08-09T22:36:02.052Z,1.70
2022-08-09T22:38:29.955Z,1.40
2022-08-09T22:40:57.760Z,1.65
2022-08-09T22:43:26.463Z,1.88
2022-08-09T22:48:11.989Z,1.80
2022-08-09T22:49:01.875Z,1.60
2022-08-09T22:51:38.072Z,1.65
2022-08-09T22:54:05.558Z,1.70
2022-08-09T22:56:34.934Z,1.70
2022-08-09T22:59:55.715Z,1.83
2022-08-09T23:01:52.626Z,1.90
2022-08-09T23:04:19.833Z,2.00
2022-08-09T23:06:46.268Z,1.88
2022-08-09T23:09:15.148Z,1.90
2022-08-09T23:11:41.655Z,1.75
2022-08-09T23:14:10.064Z,1.80
2022-08-09T23:16:43.803Z,2.00
2022-08-09T23:19:10.159Z,1.90
2022-08-09T23:21:38.489Z,2.03
2022-08-09T23:24:07.297Z,1.80
2022-08-09T23:26:35.289Z,1.70
2022-08-09T23:29:01.735Z,1.90
2022-08-09T23:31:28.132Z,2.17
2022-08-09T23:33:54.657Z,1.90
2022-08-09T23:36:21.233Z,1.63
2022-08-09T23:38:48.417Z,1.90
2022-08-09T23:41:28.835Z,1.98
2022-08-09T23:43:57.031Z,1.88
2022-08-09T23:46:23.348Z,1.90
2022-08-09T23:48:49.748Z,2.00
2022-08-09T23:51:16.104Z,2.08
2022-08-09T23:53:42.446Z,1.70
2022-08-09T23:56:08.835Z,2.03
2022-08-09T23:58:35.439Z,2.10
